Time;durP1;ratioP1;P1;durP2;ratioP2;P2;SDS_P1;SDS_P2;PMS_P1;PMS_P2;Temp;Humidity;BMP_temperature;BMP_pressure;BME280_temperature;BME280_humidity;BME280_pressure;Samples;Min_cycle;Max_cycle;Signal;HPM_P1;HPM_P2
2024/01/19 00:02:15;;;;;;;9.13;2.30;;;-1.20;99.90;;;;;;4874685;29;20083;-44
2024/01/19 00:04:41;;;;;;;5.57;2.15;;;-1.10;99.90;;;;;;4874798;29;20056;-48
2024/01/19 00:07:07;;;;;;;7.10;2.30;;;-1.00;99.90;;;;;;4876145;29;20412;-46
2024/01/19 00:09:32;;;;;;;8.48;2.60;;;-0.80;99.90;;;;;;4875808;29;20204;-45
2024/01/19 00:11:58;;;;;;;4.63;2.35;;;-0.70;99.90;;;;;;4876164;29;20040;-45
2024/01/19 00:14:25;;;;;;;9.88;2.88;;;-0.60;99.90;;;;;;4873551;29;20073;-46
2024/01/19 00:16:50;;;;;;;5.30;2.28;;;-0.60;99.90;;;;;;4877360;29;20056;-45
2024/01/19 00:19:16;;;;;;;7.88;2.30;;;-0.50;99.90;;;;;;4857768;29;20189;-45
2024/01/19 00:21:45;;;;;;;8.57;2.58;;;-0.50;99.90;;;;;;4874962;29;20388;-49
2024/01/19 00:24:12;;;;;;;8.48;2.95;;;-0.60;99.90;;;;;;4876118;29;20080;-45
2024/01/19 00:26:38;;;;;;;10.25;3.17;;;-0.70;99.90;;;;;;4878149;29;20049;-45
2024/01/19 00:29:04;;;;;;;5.22;2.65;;;-0.80;99.90;;;;;;4878365;29;20064;-45
2024/01/19 00:31:30;;;;;;;11.20;3.13;;;-0.90;99.90;;;;;;4878470;29;20040;-46
2024/01/19 00:33:56;;;;;;;8.30;3.10;;;-0.90;99.90;;;;;;4878272;29;20042;-44
2024/01/19 00:36:22;;;;;;;6.28;2.75;;;-1.00;99.90;;;;;;4876913;29;20128;-44
2024/01/19 00:38:47;;;;;;;5.80;2.83;;;-1.10;99.90;;;;;;4877881;29;20038;-43
2024/01/19 00:41:13;;;;;;;9.20;2.90;;;-1.10;99.90;;;;;;4877307;29;20049;-45
2024/01/19 00:43:39;;;;;;;8.23;3.28;;;-1.10;99.90;;;;;;4878127;29;20040;-44
2024/01/19 00:46:05;;;;;;;9.60;2.80;;;-1.10;99.90;;;;;;4878892;29;20551;-43
2024/01/19 00:48:30;;;;;;;7.60;2.75;;;-1.10;99.90;;;;;;4877869;29;20049;-44
2024/01/19 00:50:56;;;;;;;7.70;3.20;;;-1.00;99.90;;;;;;4878136;29;20551;-46
2024/01/19 00:53:22;;;;;;;9.45;3.28;;;-1.00;99.90;;;;;;4878218;29;20128;-44
2024/01/19 00:55:47;;;;;;;8.93;3.15;;;-1.10;99.90;;;;;;4878374;29;20119;-44
2024/01/19 00:58:15;;;;;;;8.20;2.92;;;-1.20;99.90;;;;;;4877554;29;20127;-45
2024/01/19 01:00:40;;;;;;;8.13;3.23;;;-1.20;99.90;;;;;;4870984;29;20048;-45
2024/01/19 01:03:06;;;;;;;6.35;3.45;;;-1.30;99.90;;;;;;4872104;29;20057;-46
2024/01/19 01:05:32;;;;;;;7.75;2.72;;;-1.30;99.90;;;;;;4861076;29;20048;-46
2024/01/19 01:07:57;;;;;;;8.45;3.25;;;-1.30;99.90;;;;;;4872254;29;20041;-47
2024/01/19 01:10:23;;;;;;;8.93;2.65;;;-1.30;99.90;;;;;;4878637;29;20065;-45
2024/01/19 01:12:48;;;;;;;7.90;3.10;;;-1.40;99.90;;;;;;4871928;29;20128;-46
2024/01/19 01:15:14;;;;;;;8.13;2.80;;;-1.40;99.90;;;;;;4871573;29;20128;-44
2024/01/19 01:17:40;;;;;;;8.07;2.90;;;-1.40;99.90;;;;;;4873091;29;20045;-43
2024/01/19 01:20:06;;;;;;;7.25;2.70;;;-1.50;99.90;;;;;;4875177;29;20139;-45
2024/01/19 01:22:32;;;;;;;8.30;3.10;;;-1.50;99.90;;;;;;4875088;29;20060;-43
2024/01/19 01:24:58;;;;;;;3.85;2.15;;;-1.50;99.90;;;;;;4859927;29;20049;-48
2024/01/19 01:27:23;;;;;;;9.88;2.90;;;-1.50;99.90;;;;;;4868250;29;20124;-43
2024/01/19 01:29:49;;;;;;;12.85;2.80;;;-1.60;99.90;;;;;;4860565;29;20084;-45
2024/01/19 01:32:15;;;;;;;7.03;2.53;;;-1.60;99.90;;;;;;4862229;29;20049;-47
2024/01/19 01:34:40;;;;;;;7.00;2.67;;;-1.70;99.90;;;;;;4871387;29;20378;-43
2024/01/19 01:37:06;;;;;;;4.97;2.72;;;-1.70;99.90;;;;;;4873026;29;20045;-44
2024/01/19 01:39:32;;;;;;;7.45;2.63;;;-1.60;99.90;;;;;;4874291;29;20396;-43
2024/01/19 01:41:58;;;;;;;6.55;2.50;;;-1.60;99.90;;;;;;4874575;29;20064;-45
2024/01/19 01:44:23;;;;;;;3.88;2.40;;;-1.50;99.90;;;;;;4875846;29;20037;-45
2024/01/19 01:46:49;;;;;;;5.85;2.72;;;-1.40;99.90;;;;;;4876759;29;20519;-43
2024/01/19 01:49:15;;;;;;;4.10;2.72;;;-1.50;99.90;;;;;;4872153;29;20124;-46
2024/01/19 01:51:41;;;;;;;8.00;2.85;;;-1.40;99.90;;;;;;4871962;29;20067;-45
2024/01/19 01:54:07;;;;;;;6.32;2.70;;;-1.40;99.90;;;;;;4874331;29;20053;-44
2024/01/19 01:56:34;;;;;;;5.55;2.67;;;-1.30;99.90;;;;;;4873693;29;20057;-46
2024/01/19 01:59:01;;;;;;;6.00;2.78;;;-1.30;99.90;;;;;;4873927;29;20123;-44
2024/01/19 02:01:27;;;;;;;7.00;2.97;;;-1.20;99.90;;;;;;4873415;29;20136;-46
2024/01/19 02:03:55;;;;;;;6.18;2.55;;;-1.20;99.90;;;;;;4875160;29;20132;-45
2024/01/19 02:06:20;;;;;;;7.65;3.42;;;-1.20;99.90;;;;;;4872737;29;20052;-46
2024/01/19 02:08:46;;;;;;;5.47;2.63;;;-1.20;99.90;;;;;;4856513;29;20041;-45
2024/01/19 02:11:12;;;;;;;6.82;2.85;;;-1.20;99.90;;;;;;4873954;29;20044;-46
2024/01/19 02:13:37;;;;;;;9.88;3.38;;;-1.20;99.90;;;;;;4874505;29;20096;-46
2024/01/19 02:16:03;;;;;;;9.13;2.95;;;-1.20;99.90;;;;;;4873115;29;20041;-46
2024/01/19 02:18:29;;;;;;;8.93;2.90;;;-1.10;99.90;;;;;;4870986;29;20068;-47
2024/01/19 02:20:55;;;;;;;7.53;3.08;;;-1.20;99.90;;;;;;4874835;29;20041;-43
2024/01/19 02:23:25;;;;;;;6.18;3.17;;;-1.10;99.90;;;;;;4859610;29;20045;-44
2024/01/19 02:25:51;;;;;;;6.95;3.20;;;-1.10;99.90;;;;;;4870821;29;20052;-47
2024/01/19 02:28:18;;;;;;;11.25;3.25;;;-1.10;99.90;;;;;;4876703;29;20049;-43
2024/01/19 02:30:44;;;;;;;7.32;3.10;;;-1.20;99.90;;;;;;4878713;29;20136;-46
2024/01/19 02:33:10;;;;;;;10.32;3.53;;;-1.20;99.90;;;;;;4869115;29;20101;-44
2024/01/19 02:35:35;;;;;;;7.85;3.20;;;-1.30;99.90;;;;;;4872375;29;20041;-43
2024/01/19 02:38:01;;;;;;;7.57;2.92;;;-1.30;99.90;;;;;;4874185;29;20033;-43
2024/01/19 02:40:27;;;;;;;9.40;3.03;;;-1.30;99.90;;;;;;4873964;29;20064;-44
2024/01/19 02:42:52;;;;;;;10.02;3.40;;;-1.30;99.90;;;;;;4854555;29;20045;-44
2024/01/19 02:45:18;;;;;;;8.48;3.50;;;-1.40;99.90;;;;;;4872624;29;20067;-43
2024/01/19 02:47:43;;;;;;;8.32;3.60;;;-1.30;99.90;;;;;;4874406;29;20049;-44
2024/01/19 02:50:09;;;;;;;9.98;3.17;;;-1.40;99.90;;;;;;4867718;29;20476;-45
2024/01/19 02:52:35;;;;;;;4.82;3.25;;;-1.40;99.90;;;;;;4872350;29;20063;-45
2024/01/19 02:55:02;;;;;;;11.90;3.50;;;-1.40;99.90;;;;;;4872685;29;20148;-47
2024/01/19 02:57:28;;;;;;;7.80;3.13;;;-1.50;99.90;;;;;;4870497;29;20128;-44
2024/01/19 02:59:53;;;;;;;7.32;3.15;;;-1.50;99.90;;;;;;4871848;29;20556;-44
2024/01/19 03:02:19;;;;;;;9.35;3.20;;;-1.50;99.90;;;;;;4872436;29;20052;-45
2024/01/19 03:04:44;;;;;;;7.50;3.67;;;-1.40;99.90;;;;;;4874342;29;20140;-46
2024/01/19 03:07:11;;;;;;;13.02;3.40;;;-1.30;99.90;;;;;;4872297;29;20408;-48
2024/01/19 03:09:36;;;;;;;10.52;3.95;;;-1.20;99.90;;;;;;4872783;29;20052;-44
2024/01/19 03:12:02;;;;;;;12.52;3.60;;;-1.00;99.90;;;;;;4872936;29;20044;-45
2024/01/19 03:14:28;;;;;;;8.88;3.67;;;-1.00;99.90;;;;;;4872356;29;20045;-45
2024/01/19 03:16:53;;;;;;;10.43;4.43;;;-0.90;99.90;;;;;;4871729;29;20045;-45
2024/01/19 03:19:19;;;;;;;10.77;4.50;;;-0.80;99.90;;;;;;4860183;29;20094;-44
2024/01/19 03:21:45;;;;;;;9.57;4.60;;;-0.80;99.90;;;;;;4874059;29;20404;-43
2024/01/19 03:24:11;;;;;;;12.93;4.30;;;-0.70;99.90;;;;;;4873027;29;20033;-44
2024/01/19 03:26:36;;;;;;;9.07;3.70;;;-0.70;99.90;;;;;;4873688;29;20489;-46
2024/01/19 03:29:03;;;;;;;5.75;3.20;;;-0.60;99.90;;;;;;4873391;29;20484;-43
2024/01/19 03:31:28;;;;;;;7.22;3.17;;;-0.70;99.90;;;;;;4865066;29;20485;-44
2024/01/19 03:33:54;;;;;;;6.55;2.95;;;-0.80;99.90;;;;;;4872479;29;20056;-44
2024/01/19 03:36:20;;;;;;;6.38;3.30;;;-0.80;99.90;;;;;;4871152;29;20051;-44
2024/01/19 03:38:45;;;;;;;6.68;3.60;;;-0.90;99.90;;;;;;4872212;29;20045;-46
2024/01/19 03:41:11;;;;;;;9.82;4.45;;;-0.90;99.90;;;;;;4873940;29;20476;-44
2024/01/19 03:43:37;;;;;;;8.88;3.95;;;-0.90;99.90;;;;;;4870853;29;20048;-46
2024/01/19 03:46:03;;;;;;;11.15;3.95;;;-1.10;99.90;;;;;;4871974;29;20037;-45
2024/01/19 03:48:29;;;;;;;11.43;4.72;;;-1.10;99.90;;;;;;4872464;29;20055;-44
2024/01/19 03:50:54;;;;;;;6.40;3.97;;;-1.10;99.90;;;;;;4871894;29;20049;-43
2024/01/19 03:53:20;;;;;;;8.75;3.67;;;-1.10;99.90;;;;;;4869670;29;20053;-44
2024/01/19 03:55:46;;;;;;;7.22;3.60;;;-1.20;99.90;;;;;;4869740;29;20071;-43
2024/01/19 03:58:11;;;;;;;10.95;3.88;;;-1.20;99.90;;;;;;4873626;29;20037;-43
2024/01/19 04:00:37;;;;;;;8.23;3.40;;;-1.20;99.90;;;;;;4858346;29;20053;-45
2024/01/19 04:03:03;;;;;;;8.55;3.45;;;-1.40;99.90;;;;;;4868736;29;20043;-45
2024/01/19 04:05:28;;;;;;;6.60;3.30;;;-1.40;99.90;;;;;;4871721;29;20048;-48
2024/01/19 04:07:54;;;;;;;8.80;3.25;;;-1.30;99.90;;;;;;4867613;29;20042;-43
2024/01/19 04:10:20;;;;;;;5.32;3.10;;;-1.40;99.90;;;;;;4873514;29;20053;-44
2024/01/19 04:12:45;;;;;;;8.30;3.10;;;-1.40;99.90;;;;;;4871074;29;20492;-44
2024/01/19 04:15:11;;;;;;;5.97;2.95;;;-1.30;99.90;;;;;;4872189;29;20052;-44
2024/01/19 04:17:37;;;;;;;4.30;3.05;;;-1.30;99.90;;;;;;4870520;29;20052;-44
2024/01/19 04:20:04;;;;;;;4.55;2.85;;;-1.20;99.90;;;;;;4857764;29;20125;-44
2024/01/19 04:22:30;;;;;;;4.82;3.20;;;-1.30;99.90;;;;;;4874123;29;20049;-45
2024/01/19 04:24:55;;;;;;;8.35;3.30;;;-1.30;99.90;;;;;;4875020;29;20396;-44
2024/01/19 04:27:21;;;;;;;7.38;3.50;;;-1.40;99.90;;;;;;4874401;29;20124;-44
2024/01/19 04:29:47;;;;;;;6.13;3.25;;;-1.50;99.90;;;;;;4863454;29;20488;-44
2024/01/19 04:32:12;;;;;;;4.40;3.13;;;-1.40;99.90;;;;;;4873324;29;20049;-44
2024/01/19 04:34:38;;;;;;;5.20;2.95;;;-1.40;99.90;;;;;;4877760;29;20362;-45
2024/01/19 04:37:03;;;;;;;7.82;3.03;;;-1.40;99.90;;;;;;4874431;29;20088;-44
2024/01/19 04:39:29;;;;;;;4.95;3.35;;;-1.50;99.90;;;;;;4857502;29;20040;-44
2024/01/19 04:41:55;;;;;;;8.55;3.53;;;-1.30;99.90;;;;;;4874254;29;20056;-44
2024/01/19 04:44:20;;;;;;;5.85;3.63;;;-1.30;99.90;;;;;;4871252;29;20420;-43
2024/01/19 04:46:46;;;;;;;9.93;3.63;;;-1.20;99.90;;;;;;4869911;29;20668;-44
2024/01/19 04:49:11;;;;;;;10.30;4.18;;;-1.10;99.90;;;;;;4873872;29;20101;-44
2024/01/19 04:51:37;;;;;;;7.45;4.57;;;-1.00;99.90;;;;;;4873819;29;20534;-44
2024/01/19 04:54:03;;;;;;;8.70;4.78;;;-0.90;99.90;;;;;;4856838;29;20057;-45
2024/01/19 04:56:28;;;;;;;9.00;5.50;;;-0.80;99.90;;;;;;4871995;29;20045;-45
2024/01/19 04:58:54;;;;;;;13.20;8.95;;;-0.80;99.90;;;;;;4863610;29;20080;-44
2024/01/19 05:01:20;;;;;;;18.45;10.18;;;-0.60;99.90;;;;;;4875496;29;20049;-45
2024/01/19 05:03:45;;;;;;;13.45;10.63;;;-0.50;99.90;;;;;;4877695;29;20076;-44
2024/01/19 05:06:14;;;;;;;19.10;10.15;;;-0.40;99.90;;;;;;4870656;29;20092;-44
2024/01/19 05:08:39;;;;;;;17.88;10.10;;;-0.50;99.90;;;;;;4872242;29;20512;-43
2024/01/19 05:11:05;;;;;;;15.32;10.80;;;-0.40;99.90;;;;;;4873754;29;20044;-43
2024/01/19 05:13:31;;;;;;;18.67;11.90;;;-0.30;99.90;;;;;;4871841;29;20409;-45
2024/01/19 05:15:56;;;;;;;18.50;12.02;;;-0.40;99.90;;;;;;4870895;29;20112;-45
2024/01/19 05:18:22;;;;;;;22.52;12.77;;;-0.30;99.90;;;;;;4870257;29;20120;-43
2024/01/19 05:20:47;;;;;;;19.80;13.32;;;-0.30;99.90;;;;;;4873203;29;20064;-43
2024/01/19 05:23:13;;;;;;;19.33;13.15;;;-0.40;99.90;;;;;;4855924;29;20045;-43
2024/01/19 05:25:38;;;;;;;18.85;13.13;;;-0.40;99.90;;;;;;4872402;29;22648;-43
2024/01/19 05:28:04;;;;;;;17.58;11.73;;;-0.40;99.90;;;;;;4873911;29;20045;-45
2024/01/19 05:30:30;;;;;;;15.30;11.00;;;-0.40;99.90;;;;;;4871974;29;20097;-45
2024/01/19 05:32:55;;;;;;;12.65;10.75;;;-0.40;99.90;;;;;;4872834;29;20052;-44
2024/01/19 05:35:21;;;;;;;10.38;9.20;;;-0.70;99.90;;;;;;4871521;29;20139;-45
2024/01/19 05:37:47;;;;;;;14.80;9.15;;;-0.60;99.90;;;;;;4872761;29;20442;-44
2024/01/19 05:40:12;;;;;;;11.88;8.85;;;-0.80;99.90;;;;;;4869970;29;20067;-43
2024/01/19 05:42:38;;;;;;;9.38;8.45;;;-1.00;99.90;;;;;;4867176;29;20372;-44
2024/01/19 05:45:04;;;;;;;14.90;9.02;;;-1.00;99.90;;;;;;4871690;29;20037;-45
2024/01/19 05:47:30;;;;;;;13.85;8.48;;;-1.10;99.90;;;;;;4871234;29;20041;-43
2024/01/19 05:49:55;;;;;;;11.05;9.20;;;-1.10;99.90;;;;;;4871163;29;20049;-47
2024/01/19 05:52:21;;;;;;;13.43;9.27;;;-1.20;99.90;;;;;;4874042;29;20064;-45
2024/01/19 05:54:46;;;;;;;12.00;9.07;;;-1.30;99.90;;;;;;4871277;29;20060;-43
2024/01/19 05:57:12;;;;;;;16.20;9.60;;;-1.40;99.90;;;;;;4874301;29;20076;-45
2024/01/19 05:59:38;;;;;;;15.10;10.05;;;-1.30;99.90;;;;;;4871135;29;20048;-45
2024/01/19 06:02:07;;;;;;;15.77;10.10;;;-1.50;99.90;;;;;;4871219;29;20055;-45
2024/01/19 06:04:33;;;;;;;16.10;10.45;;;-1.60;99.90;;;;;;4873048;29;20045;-44
2024/01/19 06:06:59;;;;;;;14.23;9.15;;;-1.60;99.90;;;;;;4870996;29;20105;-44
2024/01/19 06:09:25;;;;;;;13.63;8.90;;;-1.50;99.90;;;;;;4866930;29;20045;-45
2024/01/19 06:11:51;;;;;;;12.57;8.45;;;-1.50;99.90;;;;;;4866497;29;20056;-44
2024/01/19 06:14:16;;;;;;;14.98;8.77;;;-1.70;99.90;;;;;;4862099;29;20492;-45
2024/01/19 06:16:42;;;;;;;12.23;8.52;;;-1.60;99.90;;;;;;4874046;29;20465;-44
2024/01/19 06:19:07;;;;;;;15.55;8.13;;;-1.80;99.90;;;;;;4873914;29;20052;-44
2024/01/19 06:21:33;;;;;;;10.70;7.05;;;-1.70;99.90;;;;;;4872764;29;20049;-44
2024/01/19 06:23:59;;;;;;;9.05;6.63;;;-1.80;99.90;;;;;;4875285;29;20041;-43
2024/01/19 06:26:25;;;;;;;7.95;5.90;;;-1.70;99.90;;;;;;4860352;29;20119;-43
2024/01/19 06:28:50;;;;;;;10.32;6.30;;;-1.70;99.90;;;;;;4873143;29;20048;-43
2024/01/19 06:31:16;;;;;;;7.43;5.68;;;-1.80;99.90;;;;;;4873617;29;20049;-48
2024/01/19 06:33:41;;;;;;;10.40;5.68;;;-1.90;99.90;;;;;;4868131;29;20041;-43
2024/01/19 06:36:09;;;;;;;8.60;5.57;;;-1.80;99.90;;;;;;4872224;29;20094;-43
2024/01/19 06:38:34;;;;;;;10.15;5.30;;;-1.80;99.90;;;;;;4868868;29;20048;-46
2024/01/19 06:41:00;;;;;;;6.72;4.65;;;-1.80;99.90;;;;;;4872025;29;20048;-46
2024/01/19 06:43:25;;;;;;;8.80;4.85;;;-2.00;99.90;;;;;;4856434;29;20088;-43
2024/01/19 06:45:51;;;;;;;8.30;4.22;;;-1.80;99.90;;;;;;4871180;29;20033;-47
2024/01/19 06:48:17;;;;;;;8.32;4.57;;;-1.90;99.90;;;;;;4872703;29;20509;-44
2024/01/19 06:50:42;;;;;;;8.43;4.20;;;-1.90;99.90;;;;;;4876153;29;20474;-44
2024/01/19 06:53:09;;;;;;;5.28;3.70;;;-1.90;99.90;;;;;;4872857;29;20053;-44
2024/01/19 06:55:35;;;;;;;4.68;3.20;;;-1.90;99.90;;;;;;4872450;29;20083;-45
2024/01/19 06:58:00;;;;;;;7.45;2.90;;;-1.90;99.90;;;;;;4873394;29;20037;-46
2024/01/19 07:00:26;;;;;;;8.00;3.22;;;-2.00;99.90;;;;;;4873130;29;20041;-44
2024/01/19 07:02:52;;;;;;;6.80;2.60;;;-1.90;99.90;;;;;;4866331;29;20556;-44
2024/01/19 07:05:18;;;;;;;6.72;2.75;;;-1.90;99.90;;;;;;4854845;29;20060;-45
2024/01/19 07:07:43;;;;;;;5.28;2.80;;;-1.90;99.90;;;;;;4871687;29;20037;-44
2024/01/19 07:10:09;;;;;;;7.32;2.88;;;-1.80;99.90;;;;;;4874069;29;20085;-43
2024/01/19 07:12:35;;;;;;;7.10;2.78;;;-1.60;99.90;;;;;;4871136;29;20069;-46
2024/01/19 07:15:00;;;;;;;5.07;2.80;;;-1.50;99.90;;;;;;4869009;29;20041;-44
2024/01/19 07:17:26;;;;;;;5.03;2.60;;;-1.40;99.90;;;;;;4874934;29;20131;-44
2024/01/19 07:19:52;;;;;;;5.57;2.30;;;-1.40;99.90;;;;;;4871116;29;20040;-45
2024/01/19 07:22:17;;;;;;;3.28;2.03;;;-1.30;99.90;;;;;;4855357;29;20050;-45
2024/01/19 07:24:43;;;;;;;5.70;2.15;;;-1.30;99.90;;;;;;4876015;29;20372;-45
2024/01/19 07:27:09;;;;;;;4.85;2.50;;;-1.40;99.90;;;;;;4873022;29;20045;-44
2024/01/19 07:29:34;;;;;;;4.90;2.13;;;-1.20;99.90;;;;;;4871861;29;20518;-44
2024/01/19 07:32:00;;;;;;;4.35;2.20;;;-1.30;99.90;;;;;;4872679;29;20044;-44
2024/01/19 07:34:26;;;;;;;4.35;1.77;;;-1.10;99.90;;;;;;4867994;29;21674;-46
2024/01/19 07:36:52;;;;;;;8.60;2.40;;;-1.10;99.90;;;;;;4873552;29;20395;-44
2024/01/19 07:39:23;;;;;;;7.00;1.83;;;-1.10;99.90;;;;;;4873091;29;20049;-43
2024/01/19 07:41:50;;;;;;;4.57;2.05;;;-1.10;99.90;;;;;;4870520;29;20051;-44
2024/01/19 07:44:16;;;;;;;7.40;1.95;;;-1.10;99.90;;;;;;4858993;29;20154;-45
2024/01/19 07:46:41;;;;;;;2.88;1.80;;;-1.00;99.90;;;;;;4857085;29;20085;-45
2024/01/19 07:49:07;;;;;;;6.28;1.80;;;-1.00;99.90;;;;;;4877207;29;20045;-45
2024/01/19 07:51:32;;;;;;;6.28;1.80;;;-1.00;99.90;;;;;;4877071;29;20051;-45
2024/01/19 07:53:58;;;;;;;4.13;1.63;;;-0.90;99.90;;;;;;4878134;29;20109;-45
2024/01/19 07:56:24;;;;;;;3.97;1.92;;;-1.10;99.90;;;;;;4875298;29;20045;-45
2024/01/19 07:58:49;;;;;;;6.50;1.50;;;-1.10;99.90;;;;;;4873575;29;20045;-44
2024/01/19 08:01:15;;;;;;;8.57;2.00;;;-1.00;99.90;;;;;;4874650;29;20077;-44
2024/01/19 08:03:42;;;;;;;5.53;1.92;;;-1.00;99.90;;;;;;4875778;29;20037;-44
2024/01/19 08:06:08;;;;;;;5.65;1.90;;;-1.10;99.90;;;;;;4874414;29;20081;-44
2024/01/19 08:08:33;;;;;;;6.88;2.00;;;-1.10;99.90;;;;;;4861393;29;20053;-47
2024/01/19 08:10:59;;;;;;;5.25;1.52;;;-1.00;99.90;;;;;;4875082;29;20467;-45
2024/01/19 08:13:24;;;;;;;4.85;1.73;;;-1.20;99.90;;;;;;4872394;29;20061;-45
2024/01/19 08:15:50;;;;;;;6.72;1.80;;;-1.10;99.90;;;;;;4874947;29;20041;-45
2024/01/19 08:18:16;;;;;;;4.20;1.63;;;-1.10;99.90;;;;;;4875468;29;20496;-45
2024/01/19 08:20:41;;;;;;;3.83;1.85;;;-1.30;99.90;;;;;;4875167;29;20053;-44
2024/01/19 08:23:07;;;;;;;5.80;1.73;;;-1.30;99.90;;;;;;4876672;29;20067;-46
2024/01/19 08:25:32;;;;;;;7.97;2.22;;;-1.20;99.90;;;;;;4875293;29;20060;-45
2024/01/19 08:27:58;;;;;;;2.63;1.80;;;-1.30;99.90;;;;;;4876157;29;20045;-45
2024/01/19 08:30:23;;;;;;;7.85;2.00;;;-1.20;99.90;;;;;;4875567;29;20187;-44
2024/01/19 08:32:49;;;;;;;6.15;1.80;;;-1.00;99.90;;;;;;4862513;29;20095;-44
2024/01/19 08:35:15;;;;;;;6.05;2.42;;;-1.00;99.90;;;;;;4871325;29;20049;-44
2024/01/19 08:37:41;;;;;;;4.90;2.75;;;-0.80;99.90;;;;;;4874919;29;20132;-45
2024/01/19 08:40:11;;;;;;;7.57;3.90;;;-0.70;99.90;;;;;;4875601;29;20041;-44
2024/01/19 08:42:37;;;;;;;7.82;5.38;;;-0.70;99.90;;;;;;4875687;29;20047;-44
2024/01/19 08:45:04;;;;;;;12.70;5.18;;;-0.40;99.90;;;;;;4872727;29;20568;-44
2024/01/19 08:47:29;;;;;;;10.35;5.00;;;-0.30;99.90;;;;;;4878544;29;20536;-45
2024/01/19 08:49:55;;;;;;;9.13;4.47;;;0.00;99.90;;;;;;4875410;29;20087;-46
2024/01/19 08:52:21;;;;;;;12.02;4.15;;;-0.10;99.90;;;;;;4879129;29;20061;-45
2024/01/19 08:54:47;;;;;;;9.35;3.50;;;0.00;99.90;;;;;;4880001;29;20079;-44
2024/01/19 08:57:13;;;;;;;8.45;2.97;;;0.00;99.90;;;;;;4875939;29;20057;-46
2024/01/19 08:59:38;;;;;;;12.27;2.92;;;-0.20;99.90;;;;;;4878393;29;20037;-45
2024/01/19 09:02:04;;;;;;;12.77;2.38;;;-0.20;99.90;;;;;;4873687;29;20045;-46
2024/01/19 09:04:30;;;;;;;9.98;2.47;;;-0.20;99.90;;;;;;4872225;29;20057;-45
2024/01/19 09:06:55;;;;;;;12.32;2.47;;;-0.30;99.90;;;;;;4871802;29;20041;-44
2024/01/19 09:09:22;;;;;;;14.75;3.08;;;-0.30;99.90;;;;;;4872995;29;20449;-43
2024/01/19 09:11:47;;;;;;;12.73;3.17;;;-0.30;99.90;;;;;;4874707;29;20045;-44
2024/01/19 09:14:13;;;;;;;9.30;3.25;;;-0.30;99.90;;;;;;4876219;29;20407;-45
2024/01/19 09:16:45;;;;;;;9.00;3.10;;;-0.20;99.90;;;;;;4874406;29;20053;-44
2024/01/19 09:19:12;;;;;;;15.38;4.25;;;-0.30;99.90;;;;;;4874076;29;20038;-46
2024/01/19 09:21:44;;;;;;;13.88;3.63;;;-0.20;99.90;;;;;;4873247;29;20516;-45
2024/01/19 09:24:13;;;;;;;9.02;3.60;;;-0.10;99.90;;;;;;4868115;29;20045;-45
2024/01/19 09:26:38;;;;;;;19.20;3.95;;;-0.10;99.90;;;;;;4877276;29;20511;-45
2024/01/19 09:29:04;;;;;;;13.05;4.18;;;0.00;99.90;;;;;;4878837;29;20045;-45
2024/01/19 09:31:30;;;;;;;6.57;3.30;;;0.10;99.90;;;;;;4877984;29;20052;-45
2024/01/19 09:33:56;;;;;;;7.25;4.13;;;0.00;99.90;;;;;;4881156;29;20057;-44
2024/01/19 09:36:21;;;;;;;9.40;4.55;;;0.10;99.90;;;;;;4879621;29;20044;-46
2024/01/19 09:38:47;;;;;;;8.18;3.63;;;0.30;99.90;;;;;;4877834;29;20072;-44
2024/01/19 09:41:30;;;;;;;11.85;3.88;;;0.30;99.90;;;;;;4873500;29;20037;-45
2024/01/19 09:43:58;;;;;;;9.13;4.50;;;0.40;99.90;;;;;;4879062;29;20111;-45
2024/01/19 09:46:28;;;;;;;9.13;3.80;;;0.40;99.90;;;;;;4871894;29;20051;-44
2024/01/19 09:49:19;;;;;;;9.68;4.43;;;0.50;99.90;;;;;;4874625;29;20044;-45
2024/01/19 09:51:57;;;;;;;13.27;4.10;;;0.50;99.90;;;;;;4875153;29;20056;-44
2024/01/19 09:54:33;;;;;;;9.55;3.83;;;0.50;99.90;;;;;;4877198;29;20053;-44
2024/01/19 09:57:00;;;;;;;16.00;4.63;;;0.60;99.90;;;;;;4863939;29;20393;-47
2024/01/19 09:59:32;;;;;;;16.48;4.43;;;0.60;99.90;;;;;;4882078;29;20072;-45
2024/01/19 10:01:58;;;;;;;15.60;4.60;;;0.70;99.90;;;;;;4884560;29;20084;-43
2024/01/19 10:04:25;;;;;;;12.50;4.53;;;;;;;;;;4886231;29;20053;-47
2024/01/19 10:06:52;;;;;;;11.30;4.78;;;0.80;99.90;;;;;;4884452;29;20052;-45
2024/01/19 10:09:22;;;;;;;12.48;4.45;;;0.80;99.90;;;;;;4884606;29;20044;-44
2024/01/19 10:11:52;;;;;;;17.10;4.38;;;0.80;99.90;;;;;;4877092;29;20041;-44
2024/01/19 10:14:18;;;;;;;20.40;4.55;;;0.90;99.90;;;;;;4873876;29;20373;-44
2024/01/19 10:16:44;;;;;;;20.05;4.93;;;0.90;99.90;;;;;;4877493;29;20120;-44
2024/01/19 10:19:14;;;;;;;21.38;5.45;;;1.00;99.90;;;;;;4876315;29;20127;-44
2024/01/19 10:21:40;;;;;;;9.82;5.03;;;1.00;99.90;;;;;;4880838;29;20053;-44
2024/01/19 10:24:20;;;;;;;19.35;4.72;;;1.00;99.90;;;;;;4877080;29;20045;-45
2024/01/19 10:26:53;;;;;;;20.05;4.63;;;1.10;99.90;;;;;;4875117;29;20041;-44
2024/01/19 10:29:18;;;;;;;12.40;5.70;;;1.10;99.90;;;;;;4877044;29;20087;-44
2024/01/19 10:31:52;;;;;;;23.60;4.90;;;1.20;99.90;;;;;;4875951;29;20076;-44
2024/01/19 10:34:20;;;;;;;22.65;4.25;;;1.20;99.90;;;;;;4876005;29;20041;-44
2024/01/19 10:36:47;;;;;;;10.32;4.40;;;1.30;99.90;;;;;;4876093;29;20405;-45
2024/01/19 10:39:20;;;;;;;22.38;4.78;;;1.30;99.90;;;;;;4873395;29;20449;-45
2024/01/19 10:41:47;;;;;;;13.05;3.92;;;;;;;;;;4875242;29;20437;-46
2024/01/19 10:44:16;;;;;;;19.17;4.25;;;1.60;99.90;;;;;;4876270;29;20165;-44
2024/01/19 10:46:43;;;;;;;7.97;3.60;;;1.70;99.90;;;;;;4875837;29;20045;-44
2024/01/19 10:49:10;;;;;;;14.50;4.50;;;1.80;99.90;;;;;;4875995;29;20041;-44
2024/01/19 10:51:43;;;;;;;23.03;4.57;;;2.10;99.90;;;;;;4861737;29;20053;-45
2024/01/19 10:54:17;;;;;;;17.13;4.00;;;2.20;99.90;;;;;;4875642;29;20104;-45
2024/01/19 10:56:45;;;;;;;14.55;4.60;;;2.30;99.90;;;;;;4876143;29;20457;-44
2024/01/19 10:59:13;;;;;;;13.90;3.70;;;2.50;99.90;;;;;;4875308;29;20694;-45
2024/01/19 11:01:39;;;;;;;9.80;4.18;;;2.50;99.90;;;;;;4872379;29;20088;-44
2024/01/19 11:04:09;;;;;;;17.75;3.92;;;2.60;99.90;;;;;;4873611;29;20041;-49
2024/01/19 11:06:36;;;;;;;26.52;4.05;;;2.70;99.90;;;;;;4860877;29;20098;-45
2024/01/19 11:09:06;;;;;;;20.48;4.57;;;2.60;99.90;;;;;;4873471;29;20046;-45
2024/01/19 11:11:54;;;;;;;23.15;3.63;;;2.60;99.90;;;;;;4879342;29;20411;-46
2024/01/19 11:14:23;;;;;;;12.98;3.53;;;2.60;99.90;;;;;;4872275;29;20049;-44
2024/01/19 11:16:52;;;;;;;13.00;3.40;;;2.70;99.90;;;;;;4875575;29;20049;-46
2024/01/19 11:19:20;;;;;;;14.65;3.78;;;2.70;99.90;;;;;;4875053;29;20076;-46
2024/01/19 11:21:46;;;;;;;16.83;3.72;;;2.60;99.90;;;;;;4876615;29;20045;-45
2024/01/19 11:24:14;;;;;;;14.70;3.35;;;2.60;99.90;;;;;;4876700;29;20063;-46
2024/01/19 11:26:53;;;;;;;12.93;4.18;;;2.60;99.90;;;;;;4874913;29;20072;-45
2024/01/19 11:29:25;;;;;;;18.40;3.33;;;2.60;99.90;;;;;;4876004;29;20081;-48
2024/01/19 11:31:51;;;;;;;13.43;3.58;;;2.50;99.90;;;;;;4874529;29;20041;-47
2024/01/19 11:34:41;;;;;;;15.95;3.35;;;2.40;99.90;;;;;;4873245;29;20057;-46
2024/01/19 11:37:44;;;;;;;13.80;3.33;;;2.50;99.90;;;;;;4878378;29;20460;-45
2024/01/19 11:40:35;;;;;;;11.38;3.40;;;2.60;99.90;;;;;;4850201;29;20064;-45
2024/01/19 11:43:01;;;;;;;12.23;3.70;;;2.60;99.90;;;;;;4874042;29;20049;-48
2024/01/19 11:45:40;;;;;;;14.68;3.58;;;2.70;99.90;;;;;;4872628;29;20072;-44
2024/01/19 11:48:11;;;;;;;17.00;3.95;;;2.80;99.90;;;;;;4878016;29;20041;-48
2024/01/19 11:50:42;;;;;;;9.80;3.40;;;2.80;99.90;;;;;;4868027;29;20087;-45
2024/01/19 11:53:08;;;;;;;12.50;3.45;;;2.90;99.90;;;;;;4871345;29;20053;-45
2024/01/19 11:55:34;;;;;;;7.10;3.03;;;;;;;;;;4869922;29;20052;-44
2024/01/19 11:58:30;;;;;;;13.20;3.22;;;3.00;99.90;;;;;;4872858;29;20373;-44
2024/01/19 12:01:03;;;;;;;10.10;2.95;;;3.10;99.90;;;;;;4867499;29;20061;-45
2024/01/19 12:03:29;;;;;;;10.82;3.00;;;3.10;99.90;;;;;;4873182;29;20036;-46
2024/01/19 12:05:58;;;;;;;10.02;2.75;;;3.20;99.90;;;;;;4875508;29;20089;-46
2024/01/19 12:08:24;;;;;;;10.88;3.10;;;3.10;99.90;;;;;;4876966;29;20068;-45
2024/01/19 12:11:00;;;;;;;9.20;3.00;;;3.20;99.90;;;;;;4881954;29;20116;-45
2024/01/19 12:13:26;;;;;;;16.90;3.13;;;3.30;99.90;;;;;;4871767;29;20036;-44
2024/01/19 12:15:52;;;;;;;17.00;3.17;;;3.30;99.90;;;;;;4871742;29;20049;-45
2024/01/19 12:18:18;;;;;;;11.23;3.08;;;3.40;99.90;;;;;;4871269;29;20077;-43
2024/01/19 12:20:45;;;;;;;12.52;3.00;;;3.40;99.90;;;;;;4874095;29;20112;-44
2024/01/19 12:23:14;;;;;;;6.57;2.85;;;3.50;99.90;;;;;;4873334;29;20045;-46
2024/01/19 12:25:39;;;;;;;9.23;3.28;;;3.50;99.90;;;;;;4876527;29;20104;-45
2024/01/19 12:28:07;;;;;;;12.90;3.80;;;3.50;99.90;;;;;;4871611;29;20131;-44
2024/01/19 12:30:34;;;;;;;14.47;3.57;;;3.60;99.90;;;;;;4876268;29;20080;-44
2024/01/19 12:33:14;;;;;;;6.95;2.78;;;3.60;99.90;;;;;;4875819;29;20133;-44
2024/01/19 12:35:40;;;;;;;11.68;3.20;;;3.60;99.90;;;;;;4875578;29;20559;-45
2024/01/19 12:38:06;;;;;;;12.73;3.38;;;3.70;99.90;;;;;;4879789;29;20036;-45
2024/01/19 12:40:34;;;;;;;13.27;3.03;;;3.70;99.90;;;;;;4875464;29;20052;-45
2024/01/19 12:43:03;;;;;;;;;;;3.70;99.90;;;;;;4869861;29;20080;-44
2024/01/19 12:45:29;;;;;;;8.18;2.50;;;3.80;99.90;;;;;;4879954;29;19946;-45